createdAt,value
2018-08-23T00:01:35.884Z,23.80
2018-08-23T00:04:05.940Z,23.70
2018-08-23T00:06:35.352Z,23.70
2018-08-23T00:09:06.404Z,23.70
2018-08-23T00:11:39.750Z,23.60
2018-08-23T00:14:08.971Z,23.40
2018-08-23T00:16:42.578Z,23.50
2018-08-23T00:19:12.251Z,23.50
2018-08-23T00:21:42.100Z,23.50
2018-08-23T00:24:13.864Z,23.50
2018-08-23T00:26:49.493Z,23.40
2018-08-23T00:29:23.821Z,23.50
2018-08-23T00:32:12.026Z,23.40
2018-08-23T00:34:41.484Z,23.30
2018-08-23T00:37:12.984Z,23.30
2018-08-23T00:39:42.264Z,23.30
2018-08-23T00:42:12.469Z,23.20
2018-08-23T00:44:55.511Z,23.30
2018-08-23T00:47:29.507Z,23.20
2018-08-23T00:49:58.811Z,23.20
2018-08-23T00:52:50.360Z,23.20
2018-08-23T00:55:31.784Z,23.20
2018-08-23T00:58:01.064Z,23.10
2018-08-23T01:00:30.514Z,23.10
2018-08-23T01:03:03.172Z,23.00
2018-08-23T01:05:36.378Z,23.00
2018-08-23T01:08:06.567Z,23.00
2018-08-23T01:10:37.668Z,23.00
2018-08-23T01:13:07.010Z,23.00
2018-08-23T01:15:36.406Z,23.00
2018-08-23T01:18:11.448Z,22.90
2018-08-23T01:20:41.580Z,22.90
2018-08-23T01:23:11.137Z,22.80
2018-08-23T01:25:41.693Z,22.80
2018-08-23T01:28:10.992Z,22.70
2018-08-23T01:30:40.749Z,22.70
2018-08-23T01:33:11.983Z,22.50
2018-08-23T01:35:42.755Z,22.50
2018-08-23T01:38:12.605Z,22.60
2018-08-23T01:40:41.915Z,22.60
2018-08-23T01:43:11.332Z,22.50
2018-08-23T01:45:40.533Z,22.50
2018-08-23T01:48:10.693Z,22.50
2018-08-23T01:50:40.147Z,22.40
2018-08-23T01:53:09.499Z,22.30
2018-08-23T01:55:38.908Z,22.40
2018-08-23T01:58:08.101Z,22.40
2018-08-23T02:00:37.180Z,22.30
2018-08-23T02:03:06.452Z,22.40
2018-08-23T02:05:37.866Z,22.30
2018-08-23T02:08:07.748Z,22.20
2018-08-23T02:10:37.185Z,22.20
2018-08-23T02:13:11.700Z,22.20
2018-08-23T02:15:46.092Z,22.10
2018-08-23T02:18:15.313Z,22.10
2018-08-23T02:20:44.683Z,22.00
2018-08-23T02:23:13.924Z,21.90
2018-08-23T02:25:43.337Z,22.00
2018-08-23T02:28:12.964Z,22.00
2018-08-23T02:30:57.319Z,21.90
2018-08-23T02:33:27.106Z,21.90
2018-08-23T02:36:22.270Z,21.90
2018-08-23T02:39:03.948Z,21.90
2018-08-23T02:41:33.138Z,21.70
2018-08-23T02:44:02.587Z,21.80
2018-08-23T02:46:32.904Z,21.80
2018-08-23T02:49:02.258Z,21.80
2018-08-23T02:51:40.972Z,21.70
2018-08-23T02:54:12.193Z,21.70
2018-08-23T02:56:46.065Z,21.70
2018-08-23T02:59:15.461Z,21.60
2018-08-23T03:01:46.535Z,21.40
2018-08-23T03:04:16.856Z,21.50
2018-08-23T03:06:52.285Z,21.50
2018-08-23T03:09:23.620Z,21.60
2018-08-23T03:12:00.252Z,21.50
2018-08-23T03:14:30.106Z,21.40
2018-08-23T03:17:17.912Z,21.40
2018-08-23T03:20:21.237Z,21.40
2018-08-23T03:22:53.621Z,21.40
2018-08-23T03:25:23.764Z,21.30
2018-08-23T03:27:54.773Z,21.30
2018-08-23T03:30:24.724Z,21.30
2018-08-23T03:32:53.916Z,21.30
2018-08-23T03:35:23.152Z,21.30
2018-08-23T03:37:52.444Z,21.20
2018-08-23T03:40:21.675Z,21.00
2018-08-23T03:42:50.963Z,21.10
2018-08-23T03:45:25.525Z,21.00
2018-08-23T03:47:55.837Z,20.90
2018-08-23T03:50:25.293Z,21.00
2018-08-23T03:52:55.337Z,21.10
2018-08-23T03:55:26.772Z,21.10
2018-08-23T03:58:01.798Z,21.00
2018-08-23T04:00:36.330Z,21.00
2018-08-23T04:03:10.167Z,20.60
2018-08-23T04:05:39.385Z,20.70
2018-08-23T04:08:08.660Z,20.70
2018-08-23T04:10:38.028Z,20.70
2018-08-23T04:13:07.184Z,20.70
2018-08-23T04:15:36.424Z,20.70
2018-08-23T04:18:15.163Z,20.80
2018-08-23T04:20:52.780Z,20.80
2018-08-23T04:23:21.980Z,20.60
2018-08-23T04:25:51.306Z,20.70
2018-08-23T04:28:20.560Z,20.70
2018-08-23T04:30:50.023Z,20.60
2018-08-23T04:33:19.224Z,20.70
2018-08-23T04:35:48.545Z,20.60
2018-08-23T04:38:17.812Z,20.50
2018-08-23T04:41:04.556Z,20.50
2018-08-23T04:43:33.892Z,20.40
2018-08-23T04:46:06.865Z,20.50
2018-08-23T04:48:36.058Z,20.50
2018-08-23T04:51:05.632Z,20.50
2018-08-23T04:53:34.944Z,20.50
2018-08-23T04:56:04.354Z,20.40
2018-08-23T04:58:33.513Z,20.50
2018-08-23T05:01:02.774Z,20.40
2018-08-23T05:03:32.093Z,20.40
2018-08-23T05:06:01.476Z,20.50
2018-08-23T05:08:31.021Z,20.60
2018-08-23T05:11:00.307Z,20.80
2018-08-23T05:13:29.590Z,21.10
2018-08-23T05:15:58.721Z,21.50
2018-08-23T05:18:27.874Z,21.80
2018-08-23T05:20:57.276Z,22.00
2018-08-23T05:23:26.903Z,22.10
2018-08-23T05:25:59.330Z,22.00
2018-08-23T05:28:28.697Z,22.30
2018-08-23T05:30:58.060Z,22.50
2018-08-23T05:33:27.620Z,22.70
2018-08-23T05:35:57.173Z,22.60
2018-08-23T05:38:26.389Z,23.00
2018-08-23T05:41:00.142Z,22.60
2018-08-23T05:43:29.381Z,22.90
2018-08-23T05:45:58.880Z,22.60
2018-08-23T05:48:31.588Z,22.60
2018-08-23T05:51:14.316Z,22.40
2018-08-23T05:53:45.872Z,22.00
2018-08-23T05:56:16.172Z,22.20
2018-08-23T05:58:45.632Z,23.20
2018-08-23T06:01:15.054Z,23.80
2018-08-23T06:03:44.269Z,24.50
2018-08-23T06:06:13.577Z,23.80
2018-08-23T06:08:48.710Z,24.40
2018-08-23T06:11:17.918Z,24.20
2018-08-23T06:13:46.992Z,24.20
2018-08-23T06:16:16.121Z,24.20
2018-08-23T06:18:45.399Z,24.80
2018-08-23T06:21:14.657Z,24.00
2018-08-23T06:24:05.714Z,23.80
2018-08-23T06:26:47.565Z,23.30
2018-08-23T06:29:19.048Z,24.60
2018-08-23T06:32:22.983Z,25.20
2018-08-23T06:34:52.816Z,25.90
2018-08-23T06:37:23.216Z,25.30
2018-08-23T06:39:52.297Z,25.70
2018-08-23T06:42:26.104Z,26.00
2018-08-23T06:44:55.433Z,26.70
2018-08-23T06:47:26.230Z,26.10
2018-08-23T06:49:56.068Z,25.70
2018-08-23T06:52:38.298Z,24.50
2018-08-23T06:55:09.772Z,25.50
2018-08-23T06:57:45.233Z,27.00
2018-08-23T07:00:18.703Z,27.10
2018-08-23T07:02:48.144Z,28.20
2018-08-23T07:05:17.716Z,28.60
2018-08-23T07:07:47.055Z,28.90
2018-08-23T07:10:16.554Z,27.00
2018-08-23T07:12:46.176Z,26.50
2018-08-23T07:15:15.527Z,27.10
2018-08-23T07:17:45.197Z,26.80
2018-08-23T07:20:15.441Z,26.10
2018-08-23T07:22:44.659Z,26.40
2018-08-23T07:25:19.220Z,26.60
2018-08-23T07:27:48.403Z,26.60
2018-08-23T07:30:20.299Z,26.50
2018-08-23T07:32:50.474Z,25.40
2018-08-23T07:35:20.737Z,26.20
2018-08-23T07:37:51.270Z,26.70
2018-08-23T07:40:21.721Z,28.50
2018-08-23T07:42:52.348Z,27.50
2018-08-23T07:45:21.593Z,28.40
2018-08-23T07:47:52.257Z,29.40
2018-08-23T07:50:21.532Z,29.20
2018-08-23T07:52:52.074Z,29.00
2018-08-23T07:55:21.588Z,28.50
2018-08-23T07:57:50.961Z,29.20
2018-08-23T08:00:31.617Z,27.60
2018-08-23T08:03:01.060Z,27.00
2018-08-23T08:05:31.589Z,27.10
2018-08-23T08:08:00.916Z,28.20
2018-08-23T08:10:34.992Z,29.20
2018-08-23T08:13:04.279Z,28.90
2018-08-23T08:15:33.562Z,30.20
2018-08-23T08:18:20.207Z,30.50
2018-08-23T08:20:55.513Z,30.10
2018-08-23T08:23:24.937Z,28.40
2018-08-23T08:25:54.392Z,28.90
2018-08-23T08:28:23.692Z,30.00
2018-08-23T08:31:00.947Z,30.80
2018-08-23T08:33:34.637Z,30.20
2018-08-23T08:36:05.016Z,29.50
2018-08-23T08:38:34.900Z,29.70
2018-08-23T08:41:04.067Z,29.70
2018-08-23T08:43:33.381Z,29.50
2018-08-23T08:46:03.038Z,28.30
2018-08-23T08:48:33.406Z,29.80
2018-08-23T08:51:32.165Z,28.70
2018-08-23T08:54:02.881Z,27.70
2018-08-23T08:56:37.287Z,28.80
2018-08-23T08:59:06.433Z,29.70
2018-08-23T09:01:35.809Z,29.40
2018-08-23T09:04:05.147Z,27.10
2018-08-23T09:06:46.046Z,28.40
2018-08-23T09:09:30.235Z,27.90
2018-08-23T09:12:02.283Z,30.00
2018-08-23T09:14:31.377Z,29.60
2018-08-23T09:17:06.365Z,29.00
2018-08-23T09:19:46.530Z,28.90
2018-08-23T09:22:19.517Z,31.50
2018-08-23T09:24:48.796Z,30.50
2018-08-23T09:27:19.088Z,31.20
2018-08-23T09:29:48.489Z,29.90
2018-08-23T09:32:22.824Z,31.10
2018-08-23T09:34:56.456Z,28.30
2018-08-23T09:37:25.857Z,28.50
2018-08-23T09:39:55.127Z,27.30
2018-08-23T09:42:24.520Z,26.50
2018-08-23T09:45:04.637Z,27.70
2018-08-23T09:47:33.872Z,27.40
2018-08-23T09:50:03.379Z,27.80
2018-08-23T09:52:34.768Z,27.70
2018-08-23T09:55:04.211Z,29.30
2018-08-23T09:57:34.086Z,30.80
2018-08-23T10:00:03.325Z,30.90
2018-08-23T10:02:37.682Z,30.50
2018-08-23T10:05:08.048Z,32.60
2018-08-23T10:07:42.269Z,32.40
2018-08-23T10:10:16.744Z,31.80
2018-08-23T10:12:51.060Z,30.20
2018-08-23T10:15:25.360Z,31.40
2018-08-23T10:17:59.698Z,31.90
2018-08-23T10:20:34.067Z,30.70
2018-08-23T10:23:08.297Z,28.70
2018-08-23T10:25:43.964Z,28.10
2018-08-23T10:28:14.520Z,27.70
2018-08-23T10:30:44.444Z,27.10
2018-08-23T10:33:13.907Z,26.70
2018-08-23T10:35:55.074Z,27.90
2018-08-23T10:38:25.533Z,27.60
2018-08-23T10:40:58.921Z,28.80
2018-08-23T10:43:33.160Z,28.50
2018-08-23T10:46:03.078Z,29.50
2018-08-23T10:48:32.405Z,28.90
2018-08-23T10:51:01.865Z,30.60
2018-08-23T10:53:31.027Z,29.40
2018-08-23T10:56:00.466Z,30.60
2018-08-23T10:58:29.841Z,31.00
2018-08-23T11:00:59.380Z,30.40
2018-08-23T11:03:28.775Z,30.50
2018-08-23T11:05:57.912Z,28.10
2018-08-23T11:08:30.812Z,27.90
2018-08-23T11:11:05.144Z,27.70
2018-08-23T11:13:39.547Z,29.30
2018-08-23T11:16:14.081Z,28.20
2018-08-23T11:18:48.456Z,30.00
2018-08-23T11:21:18.112Z,28.50
2018-08-23T11:23:47.737Z,28.50
2018-08-23T11:26:18.830Z,27.60
2018-08-23T11:28:48.508Z,27.90
2018-08-23T11:31:23.135Z,28.20
2018-08-23T11:33:52.369Z,28.60
2018-08-23T11:36:21.604Z,27.80
2018-08-23T11:38:50.832Z,27.00
2018-08-23T11:41:20.180Z,26.70
2018-08-23T11:43:49.504Z,27.20
2018-08-23T11:46:19.842Z,27.50
2018-08-23T11:48:49.603Z,27.30
2018-08-23T11:51:19.289Z,27.60
2018-08-23T11:53:48.604Z,27.80
2018-08-23T11:56:17.642Z,28.50
2018-08-23T11:58:46.931Z,28.60
2018-08-23T12:01:17.144Z,28.70
2018-08-23T12:03:46.679Z,28.40
2018-08-23T12:06:17.032Z,28.30
2018-08-23T12:08:46.426Z,28.00
2018-08-23T12:11:15.677Z,28.00
2018-08-23T12:13:50.845Z,27.90
2018-08-23T12:16:20.132Z,28.10
2018-08-23T12:18:49.309Z,27.90
2018-08-23T12:21:18.556Z,27.70
2018-08-23T12:23:47.941Z,27.70
2018-08-23T12:26:17.467Z,27.80
2018-08-23T12:28:51.619Z,28.00
2018-08-23T12:31:20.829Z,28.30
2018-08-23T12:33:50.132Z,28.30
2018-08-23T12:37:24.251Z,28.10
2018-08-23T12:39:58.440Z,27.90
2018-08-23T12:42:33.029Z,28.30
2018-08-23T12:45:02.112Z,27.70
2018-08-23T12:47:31.563Z,28.00
2018-08-23T12:50:06.540Z,27.10
2018-08-23T12:52:35.726Z,28.00
2018-08-23T12:55:04.989Z,28.30
2018-08-23T12:57:34.146Z,28.10
2018-08-23T13:00:03.413Z,28.20
2018-08-23T13:02:32.651Z,28.10
2018-08-23T13:05:02.004Z,28.10
2018-08-23T13:07:31.066Z,27.60
2018-08-23T13:10:00.190Z,28.10
2018-08-23T13:12:29.356Z,28.00
2018-08-23T13:14:58.621Z,27.80
2018-08-23T13:17:27.770Z,27.50
2018-08-23T13:19:57.040Z,27.80
2018-08-23T13:22:31.457Z,28.00
2018-08-23T13:25:07.052Z,27.70
2018-08-23T13:27:36.327Z,27.90
2018-08-23T13:30:05.697Z,27.80
2018-08-23T13:32:34.717Z,27.80
2018-08-23T13:35:04.065Z,27.70
2018-08-23T13:37:33.920Z,27.30
2018-08-23T13:40:03.316Z,27.50
2018-08-23T13:42:32.687Z,27.20
2018-08-23T13:45:01.852Z,27.30
2018-08-23T13:47:31.104Z,27.80
2018-08-23T13:50:00.520Z,28.20
2018-08-23T13:52:29.916Z,28.40
2018-08-23T13:54:59.077Z,28.00
2018-08-23T13:57:28.973Z,27.20
2018-08-23T13:59:58.337Z,27.50
2018-08-23T14:02:27.626Z,28.10
2018-08-23T14:04:56.856Z,27.60
2018-08-23T14:07:26.137Z,27.70
2018-08-23T14:09:55.372Z,27.60
2018-08-23T14:12:24.636Z,26.90
2018-08-23T14:14:56.185Z,26.90
2018-08-23T14:17:25.829Z,26.80
2018-08-23T14:19:55.765Z,27.00
2018-08-23T14:22:25.322Z,27.40
2018-08-23T14:24:55.000Z,27.70
2018-08-23T14:27:24.337Z,27.60
2018-08-23T14:29:53.643Z,26.90
2018-08-23T14:32:23.064Z,27.20
2018-08-23T14:34:52.772Z,26.60
2018-08-23T14:37:22.204Z,27.40
2018-08-23T14:39:51.553Z,27.30
2018-08-23T14:42:20.810Z,27.20
2018-08-23T14:44:50.092Z,27.10
2018-08-23T14:47:24.561Z,27.10
2018-08-23T14:49:53.880Z,27.20
2018-08-23T14:52:23.209Z,27.50
2018-08-23T14:54:52.596Z,27.90
2018-08-23T14:57:27.041Z,27.70
2018-08-23T14:59:56.436Z,27.20
2018-08-23T15:02:25.898Z,27.10
2018-08-23T15:04:55.362Z,27.60
2018-08-23T15:07:24.595Z,27.20
2018-08-23T15:09:53.773Z,27.20
2018-08-23T15:12:23.028Z,27.10
2018-08-23T15:14:52.352Z,27.10
2018-08-23T15:17:21.749Z,27.50
2018-08-23T15:19:50.940Z,27.40
2018-08-23T15:22:20.264Z,27.00
2018-08-23T15:24:49.496Z,27.20
2018-08-23T15:27:18.909Z,27.70
2018-08-23T15:29:47.961Z,27.60
2018-08-23T15:32:17.209Z,27.40
2018-08-23T15:34:46.471Z,26.90
2018-08-23T15:37:15.728Z,27.10
2018-08-23T15:39:44.944Z,27.00
2018-08-23T15:42:14.048Z,26.70
2018-08-23T15:44:43.144Z,26.70
2018-08-23T15:47:12.471Z,26.70
2018-08-23T15:49:41.547Z,26.80
2018-08-23T15:52:10.741Z,26.70
2018-08-23T15:54:39.889Z,27.10
2018-08-23T15:57:09.176Z,26.30
2018-08-23T15:59:38.320Z,26.00
2018-08-23T16:02:07.485Z,25.60
2018-08-23T16:04:36.730Z,26.00
2018-08-23T16:07:06.009Z,26.50
2018-08-23T16:09:35.368Z,26.10
2018-08-23T16:12:04.986Z,26.00
2018-08-23T16:14:34.506Z,26.80
2018-08-23T16:17:08.736Z,26.50
2018-08-23T16:19:43.142Z,26.40
2018-08-23T16:22:12.456Z,26.40
2018-08-23T16:24:41.676Z,26.70
2018-08-23T16:27:10.953Z,26.60
2018-08-23T16:29:42.397Z,26.10
2018-08-23T16:32:13.791Z,26.30
2018-08-23T16:34:43.000Z,26.20
2018-08-23T16:37:12.305Z,26.20
2018-08-23T16:39:41.554Z,26.00
2018-08-23T16:42:10.742Z,26.20
2018-08-23T16:44:40.499Z,25.90
2018-08-23T16:47:10.233Z,25.90
2018-08-23T16:49:39.785Z,25.90
2018-08-23T16:52:09.210Z,25.90
2018-08-23T16:54:38.449Z,25.90
2018-08-23T16:57:07.820Z,25.80
2018-08-23T16:59:37.280Z,25.90
2018-08-23T17:02:06.560Z,26.10
2018-08-23T17:04:41.308Z,25.60
2018-08-23T17:07:10.496Z,25.50
2018-08-23T17:09:39.952Z,25.60
2018-08-23T17:12:09.192Z,25.70
2018-08-23T17:14:38.540Z,26.00
2018-08-23T17:17:12.923Z,26.20
2018-08-23T17:19:42.193Z,26.20
2018-08-23T17:22:11.429Z,25.70
2018-08-23T17:24:40.680Z,25.90
2018-08-23T17:27:09.856Z,26.30
2018-08-23T17:29:39.129Z,26.10
2018-08-23T17:32:08.676Z,26.20
2018-08-23T17:34:37.969Z,26.20
2018-08-23T17:37:07.453Z,26.10
2018-08-23T17:39:36.920Z,25.60
2018-08-23T17:42:06.293Z,25.90
2018-08-23T17:44:35.526Z,25.60
2018-08-23T17:47:04.792Z,26.00
2018-08-23T17:49:34.136Z,25.20
2018-08-23T17:52:03.425Z,25.50
2018-08-23T17:54:32.751Z,25.30
2018-08-23T17:57:02.225Z,25.30
2018-08-23T17:59:31.528Z,25.20
2018-08-23T18:02:00.751Z,25.10
2018-08-23T18:04:30.052Z,24.80
2018-08-23T18:06:59.158Z,25.00
2018-08-23T18:09:28.336Z,25.00
2018-08-23T18:11:57.693Z,25.00
2018-08-23T18:14:26.953Z,25.20
2018-08-23T18:16:59.767Z,25.40
2018-08-23T18:19:29.156Z,25.30
2018-08-23T18:21:58.493Z,25.20
2018-08-23T18:24:27.784Z,25.00
2018-08-23T18:26:56.933Z,24.90
2018-08-23T18:29:26.221Z,24.20
2018-08-23T18:31:55.586Z,24.70
2018-08-23T18:34:25.118Z,24.20
2018-08-23T18:36:54.471Z,24.50
2018-08-23T18:39:23.617Z,24.50
2018-08-23T18:41:52.873Z,24.50
2018-08-23T18:44:22.222Z,24.40
2018-08-23T18:46:51.289Z,24.50
2018-08-23T18:49:20.645Z,24.00
2018-08-23T18:51:50.136Z,24.30
2018-08-23T18:54:19.431Z,24.40
2018-08-23T18:56:48.648Z,24.00
2018-08-23T18:59:18.005Z,24.30
2018-08-23T19:01:47.270Z,24.30
2018-08-23T19:04:16.729Z,24.20
2018-08-23T19:06:46.111Z,24.20
2018-08-23T19:09:15.345Z,24.10
2018-08-23T19:11:44.623Z,24.20
2018-08-23T19:14:13.864Z,24.20
2018-08-23T19:16:48.137Z,23.90
2018-08-23T19:19:17.614Z,24.00
2018-08-23T19:21:46.901Z,23.80
2018-08-23T19:24:16.423Z,23.90
2018-08-23T19:26:45.658Z,23.90
2018-08-23T19:29:15.073Z,23.90
2018-08-23T19:31:44.309Z,23.40
2018-08-23T19:34:13.794Z,23.20
2018-08-23T19:36:43.006Z,23.10
2018-08-23T19:39:13.292Z,23.50
2018-08-23T19:41:42.663Z,23.60
2018-08-23T19:44:12.167Z,23.80
2018-08-23T19:46:46.584Z,23.70
2018-08-23T19:49:21.028Z,23.70
2018-08-23T19:51:50.355Z,24.00
2018-08-23T19:54:19.638Z,23.70
2018-08-23T19:56:48.992Z,23.50
2018-08-23T19:59:18.052Z,22.60
2018-08-23T20:01:47.529Z,22.60
2018-08-23T20:04:16.817Z,22.90
2018-08-23T20:06:46.243Z,22.10
2018-08-23T20:09:15.533Z,22.60
2018-08-23T20:11:44.963Z,22.80
2018-08-23T20:14:14.268Z,23.00
2018-08-23T20:16:43.596Z,23.00
2018-08-23T20:19:12.768Z,23.30
2018-08-23T20:21:42.128Z,23.40
2018-08-23T20:24:11.533Z,23.10
2018-08-23T20:26:41.044Z,23.10
2018-08-23T20:29:10.664Z,23.20
2018-08-23T20:31:40.157Z,22.90
2018-08-23T20:34:09.677Z,21.90
2018-08-23T20:36:39.422Z,21.60
2018-08-23T20:39:11.865Z,21.60
2018-08-23T20:41:41.421Z,22.40
2018-08-23T20:44:11.152Z,22.60
2018-08-23T20:46:43.839Z,22.90
2018-08-23T20:49:13.345Z,23.00
2018-08-23T20:51:42.672Z,22.80
2018-08-23T20:54:13.953Z,22.30
2018-08-23T20:56:43.836Z,22.60
2018-08-23T20:59:13.249Z,22.90
2018-08-23T21:01:42.501Z,23.00
2018-08-23T21:04:12.059Z,23.10
2018-08-23T21:06:41.489Z,23.10
2018-08-23T21:09:12.467Z,23.00
2018-08-23T21:11:41.861Z,22.70
2018-08-23T21:14:11.716Z,22.80
2018-08-23T21:16:41.159Z,22.80
2018-08-23T21:19:10.800Z,22.90
2018-08-23T21:21:40.228Z,22.40
2018-08-23T21:24:09.814Z,22.20
2018-08-23T21:26:39.301Z,21.60
2018-08-23T21:29:08.947Z,21.80
2018-08-23T21:31:38.766Z,22.20
2018-08-23T21:34:08.768Z,22.00
2018-08-23T21:36:38.323Z,22.10
2018-08-23T21:39:09.784Z,22.00
2018-08-23T21:41:39.548Z,21.80
2018-08-23T21:44:09.371Z,22.00
2018-08-23T21:46:39.056Z,22.40
2018-08-23T21:49:08.717Z,22.40
2018-08-23T21:51:38.470Z,22.00
2018-08-23T21:54:08.798Z,22.20
2018-08-23T21:56:38.169Z,22.40
2018-08-23T21:59:07.616Z,22.20
2018-08-23T22:01:36.822Z,22.50
2018-08-23T22:04:05.933Z,22.80
2018-08-23T22:06:35.092Z,23.20
2018-08-23T22:09:04.981Z,22.80
2018-08-23T22:11:34.177Z,23.10
2018-08-23T22:14:03.493Z,22.70
2018-08-23T22:16:32.876Z,22.70
2018-08-23T22:19:02.114Z,22.80
2018-08-23T22:21:31.426Z,22.80
2018-08-23T22:24:00.748Z,23.10
2018-08-23T22:26:30.078Z,23.10
2018-08-23T22:28:59.340Z,23.30
2018-08-23T22:31:28.578Z,23.30
2018-08-23T22:33:57.992Z,23.60
2018-08-23T22:36:27.093Z,23.10
2018-08-23T22:38:56.377Z,23.50
2018-08-23T22:41:26.045Z,23.10
2018-08-23T22:43:55.308Z,22.30
2018-08-23T22:46:24.752Z,22.10
2018-08-23T22:48:54.265Z,22.50
2018-08-23T22:51:23.691Z,22.40
2018-08-23T22:53:53.077Z,22.60
2018-08-23T22:56:22.504Z,22.70
2018-08-23T22:58:51.764Z,22.70
2018-08-23T23:01:21.273Z,22.40
2018-08-23T23:03:55.617Z,22.40
2018-08-23T23:06:25.004Z,22.40
2018-08-23T23:08:55.101Z,22.30
2018-08-23T23:11:24.564Z,22.40
2018-08-23T23:13:53.931Z,22.10
2018-08-23T23:16:23.576Z,22.30
2018-08-23T23:18:53.001Z,22.70
2018-08-23T23:21:22.277Z,22.60
2018-08-23T23:23:51.605Z,23.00
2018-08-23T23:26:20.828Z,22.90
2018-08-23T23:28:50.218Z,22.90
2018-08-23T23:31:19.765Z,23.00
2018-08-23T23:33:49.080Z,22.70
2018-08-23T23:36:18.411Z,22.80
2018-08-23T23:38:48.070Z,22.40
2018-08-23T23:41:17.534Z,22.10
2018-08-23T23:43:46.976Z,22.30
2018-08-23T23:46:16.025Z,22.70
2018-08-23T23:48:45.248Z,22.70
2018-08-23T23:51:14.756Z,22.90
2018-08-23T23:53:43.869Z,22.50
2018-08-23T23:56:12.963Z,22.60
2018-08-23T23:58:42.285Z,21.90
